Terminal Aerodrome Forecast
Issued by NWS Tampa Bay Area, FL

Home | Current Version | Previous Version | Text Only | Print | Product List | Glossary On
Versions: 1 2 3 4 5 6 7 8 9 10 11 12 13 14 15 16 17
000
FTUS42 KTBW 011720
TAFSRQ
TAF
KSRQ 011720Z 0118/0218 07004KT P6SM FEW035 SCT250
     FM012000 29007KT P6SM VCTS SCT045CB BKN250
     FM020000 05005KT P6SM FEW040 BKN250
     FM020600 07003KT P6SM BKN250
     FM021500 08006KT P6SM FEW030 SCT120 BKN250=

USA.gov is the U.S. government's official web portal to all federal, state and local government web resources and services.